Time;durP1;ratioP1;P1;durP2;ratioP2;P2;SDS_P1;SDS_P2;PMS_P1;PMS_P2;Temp;Humidity;BMP_temperature;BMP_pressure;BME280_temperature;BME280_humidity;BME280_pressure;Samples;Min_cycle;Max_cycle;Signal;HPM_P1;HPM_P2
2022/04/17 00:02:23;;;;;;;10.18;4.90;;;;;;;15.87;60.04;100105.81;5031327;28;20088;-78
2022/04/17 00:04:50;;;;;;;15.35;4.63;;;;;;;15.82;60.70;100110.97;5031629;28;20029;-79
2022/04/17 00:07:15;;;;;;;11.70;4.32;;;;;;;15.16;60.48;100027.00;5031521;28;20030;-77
2022/04/17 00:09:40;;;;;;;10.18;4.57;;;;;;;15.62;61.60;100131.56;5031443;28;20091;-77
2022/04/17 00:12:06;;;;;;;11.65;4.75;;;;;;;15.52;61.75;100129.72;5030961;28;20022;-77
2022/04/17 00:14:32;;;;;;;12.70;4.95;;;;;;;15.31;62.48;100089.59;5031727;28;20037;-79
2022/04/17 00:16:57;;;;;;;13.10;5.20;;;;;;;15.39;62.48;100112.22;5031118;28;20029;-80
2022/04/17 00:19:23;;;;;;;15.48;5.18;;;;;;;15.57;62.67;100132.38;5031215;28;20067;-78
2022/04/17 00:21:49;;;;;;;10.70;5.35;;;;;;;15.36;62.91;100119.16;5031394;28;20071;-76
2022/04/17 00:24:15;;;;;;;10.23;4.75;;;;;;;15.35;63.04;100127.81;5030863;28;20030;-76
2022/04/17 00:26:41;;;;;;;10.90;5.22;;;;;;;15.31;62.85;100110.38;5031056;28;20033;-79
2022/04/17 00:29:06;;;;;;;14.48;5.00;;;;;;;15.52;62.94;100146.19;5029262;28;20029;-76
2022/04/17 00:31:32;;;;;;;17.08;5.75;;;;;;;15.53;63.04;100137.53;5031121;28;20017;-77
2022/04/17 00:33:57;;;;;;;12.63;5.80;;;;;;;15.51;63.35;100134.06;5031108;28;20022;-77
2022/04/17 00:36:23;;;;;;;12.85;5.85;;;;;;;15.65;63.01;100134.22;5031178;28;20156;-77
2022/04/17 00:38:48;;;;;;;11.63;4.93;;;;;;;15.68;62.41;100142.03;5030954;28;20071;-79
2022/04/17 00:41:14;;;;;;;16.02;5.03;;;;;;;15.61;61.44;100134.16;5030204;28;20393;-73
2022/04/17 00:43:47;;;;;;;16.80;5.30;;;;;;;15.70;61.58;100149.84;5030810;28;20476;-75
2022/04/17 00:46:13;;;;;;;21.70;6.75;;;;;;;15.78;60.98;100143.00;5030661;28;20036;-76
2022/04/17 00:48:39;;;;;;;53.28;11.52;;;;;;;15.72;61.09;100118.66;5030048;28;20599;-76
2022/04/17 00:51:05;;;;;;;46.58;10.60;;;;;;;15.79;62.41;100120.47;5030747;28;20093;-76
2022/04/17 00:53:31;;;;;;;37.97;8.63;;;;;;;15.77;62.53;100124.78;5030174;28;20088;-75
2022/04/17 00:55:57;;;;;;;59.53;13.20;;;;;;;15.79;61.85;100123.94;5010791;28;20045;-77
2022/04/17 00:58:24;;;;;;;64.10;14.13;;;;;;;15.77;61.67;100114.38;5030074;28;20123;-74
2022/04/17 01:00:50;;;;;;;34.78;9.18;;;;;;;15.69;61.73;100106.50;5030038;28;20476;-85
2022/04/17 01:03:17;;;;;;;25.67;7.70;;;;;;;15.81;61.59;100119.63;4988956;28;20050;-80
2022/04/17 01:05:44;;;;;;;19.92;8.65;;;;;;;15.78;61.46;100124.78;4972825;28;20113;-84
2022/04/17 01:08:11;;;;;;;10.20;4.80;;;;;;;15.77;61.56;100120.44;4988785;28;20046;-82
2022/04/17 01:10:37;;;;;;;7.70;4.80;;;;;;;15.66;62.13;100141.16;4988195;28;20034;-79
2022/04/17 01:13:04;;;;;;;13.82;5.28;;;;;;;15.45;62.44;100131.38;4988435;28;20081;-80
2022/04/17 01:15:31;;;;;;;15.68;5.28;;;;;;;15.19;63.50;100131.94;4988322;28;20030;-79
2022/04/17 01:17:56;;;;;;;9.00;4.82;;;;;;;15.18;61.97;100147.53;4988324;28;20981;-78
2022/04/17 01:20:23;;;;;;;10.35;4.90;;;;;;;15.14;63.00;100148.31;4988271;28;20026;-82
2022/04/17 01:26:56;;;;;;;13.57;5.22;;;;;;;15.05;62.85;100128.28;4988281;28;20046;-76
2022/04/17 01:28:23;;;;;;;10.88;4.63;;;;;;;15.05;59.81;100130.88;4988396;28;20049;-78
2022/04/17 01:30:55;;;;;;;9.70;3.70;;;;;;;15.13;59.79;100131.00;4959306;28;20031;-81
2022/04/17 01:33:21;;;;;;;13.90;4.88;;;;;;;15.14;59.91;100119.72;4973712;28;20093;-79
2022/04/17 01:35:47;;;;;;;11.85;4.93;;;;;;;15.09;59.62;100134.38;5009894;28;20481;-77
2022/04/17 01:38:12;;;;;;;7.85;4.47;;;;;;;15.02;59.59;100134.31;5026352;28;20037;-80
2022/04/17 01:40:38;;;;;;;8.07;4.18;;;;;;;14.95;59.40;100121.22;5028321;28;20440;-79
2022/04/17 01:43:13;;;;;;;6.60;4.18;;;;;;;15.01;58.66;100139.50;5028134;28;20493;-79
2022/04/17 01:45:38;;;;;;;7.72;3.90;;;;;;;14.95;57.63;100109.06;5011389;28;20037;-80
2022/04/17 01:48:04;;;;;;;7.55;3.85;;;;;;;14.93;58.12;100113.41;5027821;28;20464;-76
2022/04/17 01:50:30;;;;;;;8.38;3.90;;;;;;;14.93;58.44;100107.31;5028034;28;20072;-77
2022/04/17 01:52:59;;;;;;;7.95;4.00;;;;;;;15.04;58.77;100122.22;5027805;28;20038;-80
2022/04/17 01:55:25;;;;;;;7.68;4.00;;;;;;;15.01;58.78;100127.34;5010873;28;20037;-76
2022/04/17 01:57:51;;;;;;;5.18;3.40;;;;;;;14.75;58.42;100095.81;5010594;28;20096;-75
2022/04/17 02:00:17;;;;;;;7.38;4.40;;;;;;;14.91;58.60;100119.44;5027463;28;20022;-77
2022/04/17 02:02:43;;;;;;;6.75;4.32;;;;;;;14.81;58.89;100113.25;5027065;28;20026;-76
2022/04/17 02:05:09;;;;;;;5.95;4.00;;;;;;;14.78;59.20;100107.97;5027276;28;20040;-78
2022/04/17 02:07:36;;;;;;;9.32;4.18;;;;;;;14.91;59.37;100132.44;5027160;28;20112;-76
2022/04/17 02:10:02;;;;;;;9.65;4.40;;;;;;;14.72;60.18;100129.56;5013793;28;20041;-73
2022/04/17 02:12:28;;;;;;;7.43;4.10;;;;;;;14.72;60.34;100120.03;5012834;28;20076;-75
2022/04/17 02:14:53;;;;;;;11.38;4.43;;;;;;;14.51;60.27;100089.38;5029002;28;20436;-78
2022/04/17 02:17:18;;;;;;;11.20;4.30;;;;;;;14.48;60.73;100098.84;5013390;28;20025;-77
2022/04/17 02:19:44;;;;;;;7.15;4.80;;;;;;;14.53;61.38;100123.22;5014427;28;20477;-77
2022/04/17 02:22:10;;;;;;;11.55;4.82;;;;;;;14.43;62.04;100123.91;4979788;28;20096;-79
2022/04/17 02:24:35;;;;;;;11.68;5.03;;;;;;;14.29;62.84;100124.53;5014210;28;20033;-79
2022/04/17 02:27:01;;;;;;;22.23;5.38;;;;;;;14.16;63.43;100120.88;5014499;28;20037;-77
2022/04/17 02:29:26;;;;;;;15.38;5.30;;;;;;;14.05;63.59;100086.94;5014064;28;20163;-79
2022/04/17 02:31:51;;;;;;;9.55;5.15;;;;;;;13.91;63.90;100067.69;5014253;28;20049;-80
2022/04/17 02:34:17;;;;;;;9.85;4.60;;;;;;;14.06;64.35;100117.25;5014603;28;20026;-76
2022/04/17 02:36:42;;;;;;;11.45;4.90;;;;;;;13.89;64.55;100090.13;5014237;28;20456;-77
2022/04/17 02:39:08;;;;;;;8.13;5.32;;;;;;;13.97;64.65;100104.13;5014079;28;20539;-76
2022/04/17 02:41:33;;;;;;;9.98;5.38;;;;;;;14.01;64.96;100110.25;5012607;28;20032;-76
2022/04/17 02:43:58;;;;;;;15.13;6.20;;;;;;;13.90;64.74;100095.34;5014140;28;20041;-77
2022/04/17 02:49:08;;;;;;;10.93;5.38;;;;;;;13.99;64.71;100110.19;5013917;28;20064;-76
2022/04/17 02:51:33;;;;;;;9.32;5.10;;;;;;;14.09;64.97;100129.41;5013806;28;20113;-76
2022/04/17 02:53:59;;;;;;;7.97;4.50;;;;;;;13.97;65.22;100124.91;5013701;28;20113;-75
2022/04/17 02:56:25;;;;;;;10.65;5.00;;;;;;;13.92;65.09;100123.94;5013867;28;20033;-76
2022/04/17 02:58:52;;;;;;;8.10;4.75;;;;;;;13.94;66.36;100123.97;5013584;28;20050;-79
2022/04/17 03:06:46;;;;;;;11.48;4.45;;;;;;;14.03;68.84;100131.88;5013722;28;20044;-75
2022/04/17 03:09:12;;;;;;;13.57;5.03;;;;;;;13.88;69.50;100115.22;5013294;28;20034;-79
2022/04/17 03:11:37;;;;;;;8.82;4.80;;;;;;;13.55;71.14;100048.91;5013468;28;20033;-76
2022/04/17 03:14:03;;;;;;;9.73;4.88;;;;;;;14.19;71.41;100151.22;5013654;28;20396;-76
2022/04/17 03:16:28;;;;;;;12.52;4.57;;;;;;;14.17;72.02;100124.38;5013393;28;20038;-76
2022/04/17 03:18:54;;;;;;;8.88;4.55;;;;;;;14.21;71.07;100131.34;5013356;28;20033;-80
2022/04/17 03:21:19;;;;;;;15.20;5.10;;;;;;;14.12;73.03;100142.44;5013618;28;20034;-75
2022/04/17 03:23:45;;;;;;;13.80;5.85;;;;;;;14.20;72.40;100145.16;5013300;28;20033;-75
2022/04/17 03:26:10;;;;;;;13.60;6.13;;;;;;;14.24;72.30;100153.06;5013338;28;20025;-75
2022/04/17 03:28:35;;;;;;;34.00;8.45;;;;;;;14.38;73.21;100167.97;5013136;28;20026;-78
2022/04/17 03:31:01;;;;;;;43.75;10.95;;;;;;;14.34;72.39;100181.75;5011957;28;20037;-78
2022/04/17 03:33:28;;;;;;;83.60;16.08;;;;;;;14.23;72.80;100191.94;5013384;28;20026;-80
2022/04/17 03:35:53;;;;;;;37.13;8.23;;;;;;;14.20;72.00;100190.16;5013160;28;20096;-79
2022/04/17 03:38:19;;;;;;;47.03;9.00;;;;;;;14.35;73.15;100202.53;5012809;28;20053;-80
2022/04/17 03:40:44;;;;;;;46.63;8.02;;;;;;;14.20;72.49;100234.31;5012993;28;20120;-79
2022/04/17 03:43:11;;;;;;;20.40;5.90;;;;;;;13.40;76.58;100207.66;5019652;28;20132;-75
2022/04/17 03:45:36;;;;;;;7.72;5.63;;;;;;;13.31;81.95;100248.94;5032853;28;20132;-78
2022/04/17 03:48:01;;;;;;;11.73;6.15;;;;;;;12.86;86.30;100240.13;5032599;28;20591;-74
2022/04/17 03:50:27;;;;;;;8.10;5.25;;;;;;;12.46;90.90;100211.53;5032499;28;20029;-77
2022/04/17 03:52:54;;;;;;;12.30;6.97;;;;;;;12.34;94.13;100244.03;5032424;28;20075;-80
2022/04/17 03:55:19;;;;;;;13.48;8.43;;;;;;;12.18;98.05;100258.25;5032377;28;20104;-76
2022/04/17 03:57:45;;;;;;;12.60;7.30;;;;;;;11.98;100.00;100256.00;5032667;28;20056;-76
2022/04/17 04:00:12;;;;;;;13.73;8.52;;;;;;;11.91;100.00;100277.31;5032583;28;20033;-78
2022/04/17 04:02:41;;;;;;;16.42;9.35;;;;;;;11.84;100.00;100273.69;5032354;28;20055;-80
2022/04/17 04:05:10;;;;;;;13.30;9.23;;;;;;;11.62;100.00;100262.72;5032551;28;20036;-82
2022/04/17 04:07:36;;;;;;;13.25;10.50;;;;;;;11.68;100.00;100277.53;5032287;28;20033;-79
2022/04/17 04:10:03;;;;;;;13.38;9.95;;;;;;;11.59;100.00;100269.50;5032631;28;20038;-81
2022/04/17 04:12:29;;;;;;;13.15;11.35;;;;;;;11.71;100.00;100292.25;5014683;28;20028;-78
2022/04/17 04:14:54;;;;;;;15.82;10.75;;;;;;;11.74;100.00;100275.13;5031976;28;20021;-79
2022/04/17 04:17:20;;;;;;;14.80;11.15;;;;;;;11.65;100.00;100270.56;5014243;28;20025;-77
2022/04/17 04:19:45;;;;;;;12.88;10.05;;;;;;;11.76;100.00;100273.47;5031836;28;20034;-80
2022/04/17 04:22:11;;;;;;;13.48;10.48;;;;;;;11.91;100.00;100285.06;5014125;28;20033;-79
2022/04/17 04:24:36;;;;;;;17.05;11.75;;;;;;;11.89;100.00;100291.94;5014153;28;20044;-76
2022/04/17 04:29:47;;;;;;;13.68;11.50;;;;;;;11.99;100.00;100288.81;5031973;28;20107;-79
2022/04/17 04:32:12;;;;;;;14.10;11.02;;;;;;;11.79;100.00;100254.59;5014250;28;20037;-76
2022/04/17 04:34:38;;;;;;;17.80;12.05;;;;;;;11.68;100.00;100259.44;5030671;28;20041;-77
2022/04/17 04:37:04;;;;;;;14.27;11.15;;;;;;;11.67;100.00;100268.03;5031264;28;20029;-80
2022/04/17 04:39:29;;;;;;;15.63;12.10;;;;;;;11.97;100.00;100300.81;5031794;28;20108;-76
2022/04/17 04:41:55;;;;;;;13.63;11.35;;;;;;;11.92;100.00;100286.84;5031645;28;20063;-76
2022/04/17 04:44:20;;;;;;;12.20;9.95;;;;;;;12.05;100.00;100295.84;5031962;28;20059;-75
2022/04/17 04:46:45;;;;;;;16.50;11.05;;;;;;;11.96;100.00;100289.59;5013904;28;20037;-76
2022/04/17 04:51:55;;;;;;;13.23;10.60;;;;;;;12.03;100.00;100290.63;5031299;28;20075;-73
2022/04/17 04:54:20;;;;;;;15.80;9.05;;;;;;;12.21;100.00;100291.97;5031485;28;20084;-75
2022/04/17 04:56:46;;;;;;;12.30;10.10;;;;;;;12.01;100.00;100281.94;5031350;28;20055;-76
2022/04/17 04:59:11;;;;;;;12.57;9.50;;;;;;;11.86;100.00;100268.56;5031110;28;20066;-76
2022/04/17 05:01:37;;;;;;;15.18;11.48;;;;;;;11.69;100.00;100257.72;5031209;28;20500;-76
2022/04/17 05:04:03;;;;;;;14.65;11.10;;;;;;;11.88;100.00;100260.00;5030480;28;20397;-76
2022/04/17 05:06:29;;;;;;;12.98;10.73;;;;;;;11.97;100.00;100269.75;5023919;28;20061;-76
2022/04/17 05:08:54;;;;;;;15.15;11.18;;;;;;;12.04;100.00;100281.19;5029054;28;20458;-76
2022/04/17 05:11:20;;;;;;;12.55;10.57;;;;;;;11.98;100.00;100262.03;5030928;28;20516;-76
2022/04/17 05:13:46;;;;;;;14.75;11.45;;;;;;;12.02;100.00;100262.13;5030816;28;20103;-78
2022/04/17 05:16:13;;;;;;;16.05;10.95;;;;;;;12.04;100.00;100269.09;5030792;28;20025;-84
2022/04/17 05:18:38;;;;;;;24.83;11.13;;;;;;;11.94;100.00;100259.31;5012719;28;20091;-80
2022/04/17 05:21:05;;;;;;;26.38;11.73;;;;;;;11.97;100.00;100272.34;5030586;28;20025;-80
2022/04/17 05:23:31;;;;;;;46.90;16.48;;;;;;;11.81;100.00;100266.72;5024672;28;20013;-82
2022/04/17 05:25:59;;;;;;;56.80;19.42;;;;;;;11.85;100.00;100264.22;5009858;28;20136;-81
2022/04/17 05:28:25;;;;;;;16.50;10.50;;;;;;;11.86;100.00;100266.84;5030027;28;20100;-77
2022/04/17 05:30:50;;;;;;;12.77;10.30;;;;;;;11.88;100.00;100264.31;5012300;28;20120;-77
2022/04/17 05:33:22;;;;;;;22.45;11.65;;;;;;;11.77;100.00;100251.06;5013356;28;20025;-80
2022/04/17 05:35:49;;;;;;;27.77;11.88;;;;;;;11.69;100.00;100231.84;5030168;28;20029;-79
2022/04/17 05:38:14;;;;;;;33.85;15.70;;;;;;;11.73;100.00;100242.34;5012113;28;20496;-80
2022/04/17 05:40:48;;;;;;;104.80;27.58;;;;;;;11.66;100.00;100235.22;5029807;28;20018;-79
2022/04/17 05:43:14;;;;;;;51.72;17.85;;;;;;;11.66;100.00;100224.88;5029974;28;20029;-80
2022/04/17 05:45:40;;;;;;;50.95;20.08;;;;;;;11.73;100.00;100238.91;5010987;28;20025;-81
2022/04/17 05:48:11;;;;;;;36.28;16.00;;;;;;;11.49;100.00;100196.84;5030196;28;20035;-82
2022/04/17 05:50:38;;;;;;;63.20;24.05;;;;;;;11.46;100.00;100190.72;5029010;28;20103;-82
2022/04/17 05:53:04;;;;;;;70.63;21.83;;;;;;;11.47;100.00;100190.75;5005988;28;20040;-82
2022/04/17 05:55:30;;;;;;;66.72;23.17;;;;;;;11.66;100.00;100214.53;5027845;28;20104;-82
2022/04/17 05:57:55;;;;;;;52.22;18.50;;;;;;;11.68;100.00;100215.47;5030082;28;20578;-81
2022/04/17 06:00:21;;;;;;;50.35;18.52;;;;;;;11.69;100.00;100237.94;5012661;28;20041;-82
2022/04/17 06:02:47;;;;;;;57.35;19.15;;;;;;;11.57;100.00;100240.16;5011744;28;20029;-81
2022/04/17 06:05:14;;;;;;;25.10;12.68;;;;;;;11.56;100.00;100241.84;5002247;28;20037;-83
2022/04/17 06:07:40;;;;;;;52.03;17.92;;;;;;;11.45;100.00;100223.47;4992862;28;20072;-83
2022/04/17 06:10:09;;;;;;;64.00;20.83;;;;;;;11.68;100.00;100233.56;4998583;28;20021;-82
2022/04/17 06:12:35;;;;;;;61.78;20.52;;;;;;;11.70;100.00;100241.38;5029897;28;20037;-82
2022/04/17 06:15:01;;;;;;;73.93;24.05;;;;;;;11.79;100.00;100268.38;5028545;28;20397;-83
2022/04/17 06:17:27;;;;;;;66.88;22.83;;;;;;;11.59;100.00;100223.84;5028661;28;20496;-83
2022/04/17 06:19:53;;;;;;;72.55;22.35;;;;;;;11.62;100.00;100228.22;5029931;28;20057;-82
2022/04/17 06:22:18;;;;;;;47.45;17.98;;;;;;;11.76;100.00;100262.25;5029989;28;20086;-82
2022/04/17 06:24:46;;;;;;;37.53;17.95;;;;;;;11.64;100.00;100242.97;5045221;28;20037;-82
2022/04/17 06:27:12;;;;;;;42.70;17.35;;;;;;;11.56;100.00;100233.22;5044709;28;20021;-81
2022/04/17 06:29:37;;;;;;;71.82;22.85;;;;;;;11.60;100.00;100228.19;5030043;28;20099;-81
2022/04/17 06:32:03;;;;;;;39.70;17.98;;;;;;;11.45;100.00;100195.03;5028591;28;20030;-84
2022/04/17 06:34:29;;;;;;;35.17;15.80;;;;;;;11.57;100.00;100202.22;5030036;28;20067;-80
2022/04/17 06:36:54;;;;;;;31.30;15.70;;;;;;;11.76;100.00;100224.34;5028377;28;20041;-81
2022/04/17 06:39:19;;;;;;;25.13;14.32;;;;;;;11.77;100.00;100235.56;5011972;28;20029;-81
2022/04/17 06:41:45;;;;;;;41.35;16.17;;;;;;;11.61;100.00;100208.38;5029614;28;20451;-80
2022/04/17 06:44:11;;;;;;;71.30;18.35;;;;;;;11.82;100.00;100252.06;5029879;28;20038;-79
2022/04/17 06:46:40;;;;;;;52.88;17.83;;;;;;;11.78;100.00;100232.13;5029857;28;20033;-79
2022/04/17 06:49:09;;;;;;;34.13;13.95;;;;;;;11.84;100.00;100242.66;5028442;28;20029;-79
2022/04/17 06:51:34;;;;;;;38.72;13.80;;;;;;;11.81;100.00;100252.91;5012196;28;20396;-80
2022/04/17 06:54:00;;;;;;;67.90;20.02;;;;;;;11.79;100.00;100252.88;5029467;28;20033;-80
2022/04/17 06:56:25;;;;;;;27.70;13.05;;;;;;;11.74;100.00;100245.78;5011503;28;20549;-80
2022/04/17 06:58:51;;;;;;;43.70;15.10;;;;;;;11.68;100.00;100236.16;5031711;28;20049;-80
2022/04/17 07:01:17;;;;;;;53.63;16.67;;;;;;;11.66;100.00;100237.81;5032947;28;20029;-81
2022/04/17 07:03:44;;;;;;;67.68;21.38;;;;;;;11.78;100.00;100251.09;5033080;28;20083;-81
2022/04/17 07:06:10;;;;;;;29.83;12.55;;;;;;;11.58;100.00;100216.91;5033736;28;20041;-81
2022/04/17 07:08:35;;;;;;;45.83;14.68;;;;;;;11.68;100.00;100238.75;5033206;28;20033;-84
2022/04/17 07:11:01;;;;;;;51.70;15.55;;;;;;;11.46;100.00;100195.88;5048223;28;20222;-80
2022/04/17 07:13:26;;;;;;;39.55;12.77;;;;;;;11.62;100.00;100204.97;5033225;28;20419;-79
2022/04/17 07:15:52;;;;;;;22.45;8.27;;;;;;;11.77;100.00;100241.59;5033052;28;20466;-78
2022/04/17 07:18:19;;;;;;;26.55;9.60;;;;;;;11.63;100.00;100235.16;5033149;28;20029;-76
2022/04/17 07:20:46;;;;;;;45.58;12.13;;;;;;;11.63;100.00;100253.25;5015236;28;20418;-78
2022/04/17 07:23:11;;;;;;;60.05;13.38;;;;;;;11.76;100.00;100255.38;5032562;28;20037;-76
2022/04/17 07:25:37;;;;;;;33.92;10.57;;;;;;;11.84;100.00;100257.28;5032760;28;20026;-78
2022/04/17 07:28:03;;;;;;;34.63;9.85;;;;;;;11.83;100.00;100266.75;5032803;28;20021;-78
2022/04/17 07:30:33;;;;;;;39.05;10.63;;;;;;;11.66;100.00;100243.00;5032642;28;20061;-76
2022/04/17 07:33:00;;;;;;;35.88;10.95;;;;;;;11.76;100.00;100264.81;5013785;28;20099;-76
2022/04/17 07:35:27;;;;;;;42.60;11.50;;;;;;;11.78;100.00;100271.78;5032580;28;20029;-76
2022/04/17 07:37:58;;;;;;;44.75;13.80;;;;;;;11.59;100.00;100226.44;5032456;28;20056;-79
2022/04/17 07:40:27;;;;;;;71.72;16.08;;;;;;;11.61;100.00;100241.97;5032321;28;20456;-78
2022/04/17 07:42:53;;;;;;;42.72;12.00;;;;;;;11.77;100.00;100275.22;5014907;28;20088;-78
2022/04/17 07:45:20;;;;;;;41.10;12.27;;;;;;;11.71;100.00;100263.81;5032695;28;20111;-78
2022/04/17 07:47:46;;;;;;;32.15;11.18;;;;;;;11.64;100.00;100242.97;5014864;28;20056;-77
2022/04/17 07:50:14;;;;;;;49.45;12.88;;;;;;;11.47;100.00;100188.16;5032680;28;20040;-79
2022/04/17 07:52:41;;;;;;;62.67;15.48;;;;;;;11.61;100.00;100208.38;5032686;28;20037;-76
2022/04/17 07:55:08;;;;;;;37.10;11.25;;;;;;;11.73;100.00;100221.66;5014668;28;20405;-78
2022/04/17 08:00:21;;;;;;;42.63;11.90;;;;;;;11.74;100.00;100235.44;5032033;28;20587;-79
2022/04/17 08:02:55;;;;;;;69.28;15.10;;;;;;;11.66;100.00;100237.81;5031887;28;20029;-82
2022/04/17 08:05:24;;;;;;;26.77;8.02;;;;;;;11.64;100.00;100221.41;5031644;28;20079;-80
2022/04/17 08:07:51;;;;;;;29.63;9.43;;;;;;;11.56;100.00;100223.75;5032334;28;20065;-82
2022/04/17 08:10:17;;;;;;;34.88;9.35;;;;;;;11.63;100.00;100230.00;5030744;28;20459;-77
2022/04/17 08:12:42;;;;;;;35.42;11.40;;;;;;;11.49;100.00;100199.44;5031781;28;20029;-84
2022/04/17 08:15:08;;;;;;;59.88;14.40;;;;;;;11.56;100.00;100205.66;5031972;28;20408;-81
2022/04/17 08:17:34;;;;;;;26.35;8.68;;;;;;;11.56;100.00;100220.28;5031369;28;20480;-82
2022/04/17 08:19:59;;;;;;;60.53;13.48;;;;;;;11.53;100.00;100222.81;5031741;28;20033;-82
2022/04/17 08:22:25;;;;;;;76.93;17.52;;;;;;;11.39;100.00;100209.44;5031475;28;20087;-78
2022/04/17 08:24:50;;;;;;;39.63;10.32;;;;;;;11.48;100.00;100236.44;5031804;28;20032;-79
2022/04/17 08:27:16;;;;;;;50.50;10.10;;;;;;;11.44;100.00;100257.00;5031414;28;20029;-76
2022/04/17 08:29:41;;;;;;;22.80;5.43;;;;;;;11.39;100.00;100245.63;5031810;28;20036;-77
2022/04/17 08:32:07;;;;;;;26.30;5.55;;;;;;;11.28;100.00;100237.59;5031035;28;20128;-76
2022/04/17 08:34:32;;;;;;;41.58;9.70;;;;;;;11.13;100.00;100231.09;5031322;28;20415;-77
2022/04/17 08:36:59;;;;;;;49.85;9.27;;;;;;;11.19;100.00;100253.69;5031734;28;20736;-77
2022/04/17 08:39:25;;;;;;;39.97;11.32;;;;;;;11.27;100.00;100249.63;5031368;28;20443;-78
2022/04/17 08:41:54;;;;;;;15.13;6.80;;;;;;;11.22;100.00;100239.97;5031429;28;20029;-79
2022/04/17 08:44:19;;;;;;;23.58;5.95;;;;;;;11.13;100.00;100236.28;5031301;28;20044;-80
2022/04/17 08:46:45;;;;;;;33.25;7.15;;;;;;;11.04;100.00;100217.91;5029592;28;20037;-77
2022/04/17 08:49:11;;;;;;;35.33;8.20;;;;;;;10.98;100.00;100216.00;5031363;28;20080;-78
2022/04/17 08:51:40;;;;;;;23.08;6.40;;;;;;;10.97;100.00;100203.06;5031145;28;20026;-78
2022/04/17 08:54:06;;;;;;;40.47;7.10;;;;;;;10.82;100.00;100193.97;5031363;28;20104;-77
2022/04/17 08:56:34;;;;;;;55.17;12.35;;;;;;;10.86;100.00;100199.25;5031192;28;20041;-77
2022/04/17 08:59:00;;;;;;;32.65;11.07;;;;;;;10.73;100.00;100178.22;5030836;28;20050;-78
2022/04/17 09:01:26;;;;;;;23.73;6.35;;;;;;;10.95;100.00;100218.50;5030713;28;20115;-80
2022/04/17 09:03:52;;;;;;;43.65;8.18;;;;;;;11.05;100.00;100211.91;5031287;28;20036;-79
2022/04/17 09:06:19;;;;;;;20.83;5.10;;;;;;;10.97;100.00;100203.91;5031100;28;20034;-80
2022/04/17 09:09:02;;;;;;;15.32;4.47;;;;;;;10.89;100.00;100189.91;5013331;28;20075;-80
2022/04/17 09:11:29;;;;;;;24.30;5.72;;;;;;;10.89;100.00;100189.00;5029734;28;20056;-80
2022/04/17 09:13:59;;;;;;;8.60;5.18;;;;;;;11.02;100.00;100216.13;5030630;28;20033;-79
2022/04/17 09:16:27;;;;;;;19.27;4.65;;;;;;;10.81;100.00;100174.16;5030837;28;20025;-81
2022/04/17 09:18:53;;;;;;;24.45;5.85;;;;;;;10.93;100.00;100199.50;5030895;28;20029;-79
2022/04/17 09:21:32;;;;;;;13.32;5.50;;;;;;;10.96;100.00;100201.28;5030118;28;20030;-78
2022/04/17 09:24:18;;;;;;;25.50;7.05;;;;;;;10.72;100.00;100165.28;5030482;28;20033;-79
2022/04/17 09:27:01;;;;;;;21.25;6.63;;;;;;;10.63;100.00;100152.91;5030971;28;20168;-79
2022/04/17 09:29:29;;;;;;;16.50;5.32;;;;;;;10.87;100.00;100182.94;5030349;28;20552;-76
2022/04/17 09:32:04;;;;;;;11.77;4.65;;;;;;;10.73;100.00;100172.16;5029888;28;20059;-77
2022/04/17 09:34:55;;;;;;;12.38;4.18;;;;;;;10.82;100.00;100187.97;5030874;28;20029;-76
2022/04/17 09:37:25;;;;;;;19.90;5.80;;;;;;;10.66;100.00;100158.19;4987861;28;20038;-75
2022/04/17 09:39:54;;;;;;;20.85;5.85;;;;;;;10.64;100.00;100153.00;4988232;28;20483;-76
2022/04/17 09:42:23;;;;;;;7.70;3.22;;;;;;;10.80;100.00;100163.78;4988349;28;20498;-76
2022/04/17 09:44:54;;;;;;;19.90;4.45;;;;;;;10.61;100.00;100164.91;4988582;28;20036;-76
2022/04/17 09:47:26;;;;;;;33.85;8.10;;;;;;;10.61;100.00;100165.78;4988014;28;20482;-79
2022/04/17 09:49:59;;;;;;;13.38;4.57;;;;;;;10.67;100.00;100178.03;4988336;28;20114;-76
2022/04/17 09:52:27;;;;;;;26.77;5.65;;;;;;;10.76;100.00;100177.44;4988038;28;20186;-76
2022/04/17 09:54:53;;;;;;;14.48;3.83;;;;;;;10.62;100.00;100149.47;4988349;28;20137;-76
2022/04/17 09:57:57;;;;;;;15.57;3.30;;;;;;;10.63;100.00;100168.41;4987577;28;20081;-77
2022/04/17 10:00:23;;;;;;;5.78;2.10;;;;;;;10.59;100.00;100171.72;4929835;29;20412;-76
2022/04/17 10:02:49;;;;;;;4.78;2.20;;;;;;;10.62;100.00;100166.69;4929722;29;20032;-76
2022/04/17 10:05:17;;;;;;;2.65;1.90;;;;;;;10.52;100.00;100155.19;4928075;29;20032;-77
2022/04/17 10:07:47;;;;;;;6.65;2.38;;;;;;;10.57;100.00;100161.38;4933870;29;20039;-78
2022/04/17 10:10:14;;;;;;;3.50;2.33;;;;;;;10.63;100.00;100163.25;4948413;28;20035;-77
2022/04/17 10:12:42;;;;;;;5.47;2.88;;;;;;;10.54;100.00;100150.91;4948369;29;20054;-74
2022/04/17 10:15:08;;;;;;;11.13;1.95;;;;;;;10.52;100.00;100143.13;4948482;29;20054;-76
2022/04/17 10:17:41;;;;;;;8.02;1.80;;;;;;;10.40;100.00;100121.22;4908250;29;20131;-74
2022/04/17 10:20:11;;;;;;;3.05;1.98;;;;;;;10.45;100.00;100156.66;4910798;29;20126;-78
2022/04/17 10:22:38;;;;;;;1.65;1.48;;;;;;;10.41;100.00;100166.88;4910067;29;20084;-78
2022/04/17 10:25:06;;;;;;;2.38;1.55;;;;;;;10.34;100.00;100176.06;4910077;29;20048;-76
2022/04/17 10:27:49;;;;;;;24.63;5.43;;;;;;;10.51;100.00;100190.41;4910443;29;20044;-78
2022/04/17 10:30:18;;;;;;;35.10;8.10;;;;;;;10.53;100.00;100185.31;4910596;29;20039;-75
2022/04/17 10:33:08;;;;;;;59.22;11.20;;;;;;;10.34;100.00;100161.47;4912326;29;20463;-76
2022/04/17 10:35:49;;;;;;;39.95;7.43;;;;;;;10.36;100.00;100185.63;4974779;28;20597;-77
2022/04/17 10:38:23;;;;;;;42.50;8.90;;;;;;;10.36;100.00;100184.75;4989795;28;20466;-75
2022/04/17 10:41:07;;;;;;;38.00;6.90;;;;;;;10.23;100.00;100191.19;4991157;28;20026;-78
2022/04/17 10:43:42;;;;;;;45.03;10.13;;;;;;;10.25;100.00;100206.72;4990714;28;20050;-76
2022/04/17 10:46:11;;;;;;;22.42;3.88;;;;;;;10.23;100.00;100200.63;5007265;28;20038;-77
2022/04/17 10:48:47;;;;;;;48.13;8.15;;;;;;;10.17;100.00;100212.50;5006386;28;20124;-76
2022/04/17 10:51:19;;;;;;;20.45;5.45;;;;;;;9.95;100.00;100171.31;5032580;28;20459;-76
2022/04/17 10:53:57;;;;;;;44.53;9.10;;;;;;;10.03;100.00;100177.59;5032966;28;20017;-76
2022/04/17 10:56:23;;;;;;;52.58;9.75;;;;;;;10.06;100.00;100188.03;5031441;28;20037;-75
2022/04/17 10:58:56;;;;;;;29.63;7.30;;;;;;;10.18;100.00;100208.19;5026530;28;20104;-75
2022/04/17 11:01:41;;;;;;;43.33;9.65;;;;;;;10.17;100.00;100207.31;5031310;28;20037;-76
2022/04/17 11:04:29;;;;;;;24.08;7.85;;;;;;;10.12;100.00;100219.19;5032359;28;20056;-77
2022/04/17 11:07:04;;;;;;;13.35;3.30;;;;;;;10.20;100.00;100216.88;5031005;28;20029;-77
2022/04/17 11:09:30;;;;;;;14.95;2.15;;;;;;;10.18;100.00;100214.25;5028293;28;20041;-76
2022/04/17 11:12:05;;;;;;;7.03;2.60;;;;;;;10.10;100.00;100217.41;5031357;28;20037;-77
2022/04/17 11:14:31;;;;;;;3.80;2.08;;;;;;;9.95;100.00;100182.50;5032246;28;20034;-77
2022/04/17 11:17:01;;;;;;;7.85;2.15;;;;;;;10.12;100.00;100202.81;5029648;28;20087;-83
2022/04/17 11:19:32;;;;;;;2.50;1.70;;;;;;;10.10;100.00;100204.50;5028374;28;20030;-76
2022/04/17 11:22:01;;;;;;;3.15;1.60;;;;;;;9.92;100.00;100184.09;5032237;28;20032;-77
2022/04/17 11:24:29;;;;;;;7.20;2.00;;;;;;;9.95;100.00;100197.97;5032057;28;20408;-76
2022/04/17 11:26:54;;;;;;;7.10;2.28;;;;;;;10.08;100.00;100216.44;5031829;28;20033;-76
2022/04/17 11:29:38;;;;;;;4.22;2.00;;;;;;;10.07;100.00;100215.59;5032585;28;20480;-78
2022/04/17 11:32:27;;;;;;;9.68;2.38;;;;;;;9.97;100.00;100206.66;5018915;28;20049;-76